Terminal Aerodrome Forecast
Issued by NWS Charleston, SC

Home | Current Version | Previous Version | Text Only | Print | Product List | Glossary On
Versions: 1 2 3 4 5 6 7 8 9 10 11 12 13 14 15 16 17 18 19 20 21 22 23
000
FTUS42 KCHS 122300
TAFCHS
TAF
KCHS 122320Z 1300/1324 15004KT P6SM SCT040
     FM130400 00000KT 6SM MIFG SCT020
     FM131000 VRB03KT P6SM VCSH SCT020 BKN035
     FM131400 18008KT P6SM SCT030 BKN100=

USA.gov is the U.S. government's official web portal to all federal, state and local government web resources and services.